Time;durP1;ratioP1;P1;durP2;ratioP2;P2;SDS_P1;SDS_P2;PMS_P1;PMS_P2;Temp;Humidity;BMP_temperature;BMP_pressure;BME280_temperature;BME280_humidity;BME280_pressure;Samples;Min_cycle;Max_cycle;Signal;HPM_P1;HPM_P2
2022/07/13 00:02:21;;;;;;;5.25;1.80;;;;;;;13.92;59.31;100657.91;2070771;85;33039;-60
2022/07/13 00:05:31;;;;;;;3.90;1.72;;;;;;;13.86;59.49;100656.91;2070361;85;28092;-61
2022/07/13 00:08:38;;;;;;;3.08;1.60;;;;;;;13.80;59.69;100650.05;2070626;85;27992;-60
2022/07/13 00:11:48;;;;;;;5.12;2.98;;;;;;;13.77;59.78;100648.88;2071157;85;28665;-60
2022/07/13 00:14:57;;;;;;;2.72;1.60;;;;;;;13.76;59.84;100645.80;2070983;85;31068;-60
2022/07/13 00:18:09;;;;;;;3.87;1.65;;;;;;;13.74;60.04;100648.20;2070799;85;29915;-60
2022/07/13 00:21:23;;;;;;;2.27;1.50;;;;;;;13.71;60.31;100642.52;2070847;85;29539;-62
2022/07/13 00:24:30;;;;;;;3.33;1.80;;;;;;;13.69;60.33;100644.43;2070769;85;27935;-60
2022/07/13 00:27:38;;;;;;;2.02;1.80;;;;;;;13.70;60.34;100646.17;2067813;84;28688;-63
2022/07/13 00:30:50;;;;;;;7.72;1.80;;;;;;;13.70;60.27;100641.25;2064154;86;31288;-61
2022/07/13 00:33:58;;;;;;;1.85;1.32;;;;;;;13.70;60.62;100642.12;2064154;85;29429;-60
2022/07/13 00:37:12;;;;;;;2.65;1.80;;;;;;;13.69;60.63;100647.13;2063979;85;30584;-60
2022/07/13 00:40:27;;;;;;;6.00;2.17;;;;;;;13.67;60.83;100643.16;2064071;86;28017;-61
2022/07/13 00:43:33;;;;;;;3.17;1.80;;;;;;;13.67;60.85;100633.73;2063693;86;28028;-60
2022/07/13 00:46:40;;;;;;;3.67;2.20;;;;;;;13.64;60.82;100633.93;2064588;84;31094;-59
2022/07/13 00:49:49;;;;;;;3.22;1.92;;;;;;;13.65;60.95;100630.25;2064278;85;33138;-60
2022/07/13 00:53:00;;;;;;;1.95;1.72;;;;;;;13.65;61.15;100627.56;2064127;86;29225;-61
2022/07/13 00:56:13;;;;;;;2.95;1.60;;;;;;;13.64;61.27;100619.58;2064159;85;28043;-62
2022/07/13 00:59:25;;;;;;;4.35;2.12;;;;;;;13.62;61.39;100623.72;2064251;86;28705;-60
2022/07/13 01:02:35;;;;;;;4.78;1.55;;;;;;;13.62;61.40;100628.22;2064206;86;31082;-60
2022/07/13 01:05:43;;;;;;;4.20;1.70;;;;;;;13.61;61.68;100624.67;2063891;85;33020;-61
2022/07/13 01:08:53;;;;;;;3.33;1.90;;;;;;;13.61;61.76;100623.80;2063740;86;29341;-61
2022/07/13 01:12:03;;;;;;;1.72;1.45;;;;;;;13.59;62.02;100622.55;2063454;85;28030;-61
2022/07/13 01:15:10;;;;;;;6.12;1.95;;;;;;;13.58;61.93;100618.58;2034981;86;28678;-61
2022/07/13 01:18:20;;;;;;;3.40;1.60;;;;;;;13.57;62.05;100619.07;2063811;86;31034;-60
2022/07/13 01:21:25;;;;;;;2.75;1.65;;;;;;;13.56;62.15;100609.26;2058146;85;33078;-60
2022/07/13 01:24:36;;;;;;;5.42;1.65;;;;;;;13.55;62.13;100614.25;2064433;86;29357;-61
2022/07/13 01:27:48;;;;;;;3.72;1.77;;;;;;;13.54;62.22;100608.47;2063986;85;27945;-61
2022/07/13 01:31:00;;;;;;;5.45;1.80;;;;;;;13.54;62.46;100605.78;2057910;86;29141;-62
2022/07/13 01:34:09;;;;;;;3.58;1.60;;;;;;;13.52;62.57;100607.23;2064377;86;31087;-61
2022/07/13 01:37:16;;;;;;;4.35;2.00;;;;;;;13.51;62.55;100607.30;2064029;86;33607;-61
2022/07/13 01:40:20;;;;;;;3.30;2.25;;;;;;;13.48;62.70;100605.66;2064598;85;29346;-60
2022/07/13 01:43:28;;;;;;;3.05;1.75;;;;;;;13.47;62.71;100609.80;2064174;86;28083;-61
2022/07/13 01:46:37;;;;;;;2.05;1.85;;;;;;;13.45;62.91;100604.97;2064315;86;28688;-61
2022/07/13 01:49:43;;;;;;;4.25;2.00;;;;;;;13.41;62.80;100606.95;2063987;86;31620;-61
2022/07/13 01:52:54;;;;;;;1.87;1.45;;;;;;;13.37;62.92;100599.50;2064280;85;32958;-61
2022/07/13 01:55:59;;;;;;;1.47;1.37;;;;;;;13.35;63.04;100601.91;2064053;86;29350;-62
2022/07/13 01:59:07;;;;;;;4.90;1.82;;;;;;;13.30;63.19;100597.24;2063206;85;27849;-61
2022/07/13 02:02:14;;;;;;;6.03;2.22;;;;;;;13.26;63.21;100601.05;2063478;86;28649;-61
2022/07/13 02:05:21;;;;;;;3.10;1.90;;;;;;;13.20;63.32;100600.92;2063820;86;30898;-63
2022/07/13 02:08:29;;;;;;;5.20;2.03;;;;;;;13.16;63.47;100600.23;2064189;86;33135;-61
2022/07/13 02:11:36;;;;;;;4.75;2.10;;;;;;;13.12;63.73;100601.36;2064235;86;29335;-61
2022/07/13 02:14:46;;;;;;;6.90;2.33;;;;;;;13.09;63.73;100603.36;2064410;85;27783;-60
2022/07/13 02:17:55;;;;;;;3.42;1.80;;;;;;;13.06;64.00;100605.26;2063863;85;29909;-61
2022/07/13 02:21:05;;;;;;;3.50;1.90;;;;;;;13.04;64.09;100608.50;2064281;85;31040;-61
2022/07/13 02:24:14;;;;;;;4.08;2.40;;;;;;;13.00;64.15;100608.27;2064283;86;33806;-61
2022/07/13 02:27:18;;;;;;;3.62;1.60;;;;;;;12.97;64.31;100601.74;2063903;85;29441;-61
2022/07/13 02:30:26;;;;;;;2.72;2.02;;;;;;;12.95;64.42;100596.92;2061652;86;33832;-61
2022/07/13 02:33:32;;;;;;;4.05;2.10;;;;;;;12.94;64.45;100603.71;2061490;86;28679;-61
2022/07/13 02:36:45;;;;;;;5.40;2.27;;;;;;;12.90;64.52;100605.70;2021411;87;32607;-61
2022/07/13 02:39:53;;;;;;;6.03;2.10;;;;;;;12.89;64.62;100601.28;2021822;87;32994;-60
2022/07/13 02:42:57;;;;;;;2.95;1.70;;;;;;;12.86;64.73;100599.64;2021543;87;29498;-59
2022/07/13 02:46:04;;;;;;;3.72;1.90;;;;;;;12.84;64.98;100593.47;2020279;87;27925;-60
2022/07/13 02:49:08;;;;;;;5.33;2.65;;;;;;;12.82;65.00;100593.17;2020493;87;28663;-60
2022/07/13 02:52:15;;;;;;;4.78;2.10;;;;;;;12.81;65.13;100592.29;2020942;87;30918;-60
2022/07/13 02:55:22;;;;;;;3.50;2.08;;;;;;;12.80;65.12;100587.01;2021030;87;33040;-60
2022/07/13 02:58:27;;;;;;;5.50;2.37;;;;;;;12.79;65.32;100592.84;2021376;87;29306;-60
2022/07/13 03:01:32;;;;;;;3.40;2.00;;;;;;;12.79;65.38;100600.05;2021603;87;27945;-60
2022/07/13 03:04:38;;;;;;;4.25;2.30;;;;;;;12.79;65.50;100598.71;2021562;87;28619;-61
2022/07/13 03:07:49;;;;;;;4.47;2.30;;;;;;;12.80;65.80;100598.61;2021500;87;31007;-60
2022/07/13 03:10:55;;;;;;;4.83;2.35;;;;;;;12.81;65.79;100596.32;2054119;86;29428;-60
2022/07/13 03:14:06;;;;;;;7.37;2.40;;;;;;;12.84;65.93;100596.63;2040889;86;29343;-60
2022/07/13 03:17:17;;;;;;;5.37;2.65;;;;;;;12.87;66.03;100600.03;2040427;87;28014;-61
2022/07/13 03:20:27;;;;;;;6.37;2.40;;;;;;;12.93;66.14;100597.48;2040511;87;28718;-64
2022/07/13 03:23:36;;;;;;;8.53;2.62;;;;;;;13.03;66.27;100598.70;2040491;87;31054;-61
2022/07/13 03:26:42;;;;;;;6.28;2.50;;;;;;;13.13;66.49;100592.33;2040652;86;32950;-61
2022/07/13 03:29:48;;;;;;;3.42;2.08;;;;;;;13.29;66.51;100604.47;2052521;86;29325;-60
2022/07/13 03:32:57;;;;;;;4.75;2.40;;;;;;;13.46;66.70;100591.91;2055888;86;27960;-62
2022/07/13 03:36:04;;;;;;;4.47;2.22;;;;;;;13.66;66.53;100597.48;2055336;86;27868;-64
2022/07/13 03:39:12;;;;;;;4.85;2.35;;;;;;;13.86;66.53;100588.23;2055837;86;31080;-61
2022/07/13 03:42:20;;;;;;;4.47;2.30;;;;;;;14.07;66.43;100590.63;2055712;86;33127;-61
2022/07/13 03:45:32;;;;;;;7.60;2.67;;;;;;;14.27;66.30;100588.06;2055580;86;29598;-61
2022/07/13 03:48:44;;;;;;;4.90;2.33;;;;;;;14.46;66.14;100587.83;2055495;86;28013;-61
2022/07/13 03:51:52;;;;;;;3.33;2.17;;;;;;;14.64;65.97;100583.11;2056449;86;28788;-61
2022/07/13 03:55:00;;;;;;;4.62;2.50;;;;;;;14.79;65.89;100585.84;2056020;86;31179;-61
2022/07/13 03:58:13;;;;;;;6.20;2.70;;;;;;;14.94;65.68;100578.12;2055590;86;33487;-61
2022/07/13 04:01:22;;;;;;;4.20;2.35;;;;;;;15.09;65.49;100581.69;2056000;86;29367;-61
2022/07/13 04:04:32;;;;;;;5.12;2.55;;;;;;;15.26;65.43;100577.88;2056156;86;27701;-61
2022/07/13 04:07:37;;;;;;;3.87;1.92;;;;;;;15.31;65.27;100551.94;2056002;86;28645;-60
2022/07/13 04:10:45;;;;;;;4.03;2.42;;;;;;;15.61;65.06;100576.55;2056248;86;31025;-61
2022/07/13 04:13:52;;;;;;;6.08;2.40;;;;;;;15.79;64.95;100570.39;2055216;86;29599;-60
2022/07/13 04:17:01;;;;;;;5.50;2.30;;;;;;;15.98;64.68;100569.18;2029068;86;30664;-60
2022/07/13 04:20:12;;;;;;;10.63;2.98;;;;;;;16.16;64.59;100567.92;2055817;86;27958;-61
2022/07/13 04:23:17;;;;;;;4.17;1.80;;;;;;;16.38;64.39;100575.91;2056021;86;28662;-60
2022/07/13 04:26:23;;;;;;;10.05;2.40;;;;;;;16.58;64.24;100583.97;2056115;86;31031;-60
2022/07/13 04:29:27;;;;;;;3.65;2.10;;;;;;;16.79;64.12;100580.22;2047613;86;32964;-61
2022/07/13 04:32:35;;;;;;;5.53;2.10;;;;;;;17.00;63.94;100583.24;2041365;87;29372;-61
2022/07/13 04:35:46;;;;;;;3.65;2.58;;;;;;;17.25;63.77;100586.89;2041305;87;27893;-61
2022/07/13 04:38:56;;;;;;;3.20;2.00;;;;;;;17.49;63.55;100576.55;2040850;87;27979;-61
2022/07/13 04:42:07;;;;;;;5.35;2.20;;;;;;;17.77;63.30;100582.63;2041307;87;31023;-61
2022/07/13 04:45:18;;;;;;;2.27;1.95;;;;;;;18.02;62.98;100577.59;2041004;87;29410;-62
2022/07/13 04:48:22;;;;;;;5.03;2.08;;;;;;;18.31;62.56;100577.18;2040831;87;29926;-61
2022/07/13 04:51:27;;;;;;;5.45;1.90;;;;;;;18.82;62.85;100579.95;2040537;87;28060;-62
2022/07/13 04:54:36;;;;;;;;;;;;;;;19.78;62.04;100575.38;2020570;87;28751;-61
2022/07/13 04:57:48;;;;;;;3.90;1.52;;;;;;;20.92;61.10;100575.63;2040760;86;31889;-61
2022/07/13 05:00:55;;;;;;;4.30;1.57;;;;;;;22.58;59.75;100569.97;2040575;87;29657;-62
2022/07/13 05:04:01;;;;;;;2.17;1.72;;;;;;;24.21;57.78;100572.19;2041068;87;29337;-62
2022/07/13 05:07:06;;;;;;;2.77;1.80;;;;;;;25.68;55.81;100575.89;2041150;87;27794;-62
2022/07/13 05:10:15;;;;;;;2.00;1.50;;;;;;;27.04;53.69;100568.61;2041106;87;28656;-61
2022/07/13 05:13:20;;;;;;;2.25;1.50;;;;;;;28.20;51.99;100567.39;2041050;87;31079;-62
2022/07/13 05:16:31;;;;;;;4.17;1.62;;;;;;;29.31;49.98;100560.31;2040843;86;33350;-62
2022/07/13 05:19:38;;;;;;;;;;;;;;;30.36;48.97;100570.47;2042590;87;29393;-62
2022/07/13 05:22:47;;;;;;;11.63;1.70;;;;;;;31.36;46.54;100560.56;2039522;86;27475;-63
2022/07/13 05:25:51;;;;;;;1.98;1.45;;;;;;;31.66;45.32;100561.60;2018393;87;28659;-62
2022/07/13 05:28:58;;;;;;;1.95;1.60;;;;;;;31.60;44.00;100555.53;2039947;85;31069;-63
2022/07/13 05:32:05;;;;;;;1.70;1.60;;;;;;;32.08;43.18;100554.55;2036263;86;32988;-63
2022/07/13 05:35:14;;;;;;;2.85;2.25;;;;;;;32.79;41.85;100547.98;2058763;86;29342;-63
2022/07/13 05:38:24;;;;;;;3.45;2.52;;;;;;;33.38;39.97;100549.95;2057362;86;28103;-63
2022/07/13 05:41:32;;;;;;;3.17;2.20;;;;;;;33.88;39.42;100551.45;2059157;86;28668;-63
2022/07/13 05:44:43;;;;;;;5.15;2.10;;;;;;;34.48;38.51;100548.77;2059077;86;31030;-66
2022/07/13 05:47:56;;;;;;;2.50;2.25;;;;;;;35.00;38.04;100550.34;2022645;87;30083;-65
2022/07/13 05:51:15;;;;;;;2.12;2.02;;;;;;;35.28;36.62;100555.35;2059522;85;29388;-63
2022/07/13 05:54:24;;;;;;;2.40;2.20;;;;;;;35.47;35.26;100549.78;2059331;85;27962;-63
2022/07/13 05:57:32;;;;;;;3.17;1.92;;;;;;;35.79;35.24;100551.47;2059165;86;28712;-63
2022/07/13 06:00:44;;;;;;;2.62;1.90;;;;;;;35.99;34.20;100563.16;2059316;86;31493;-63
2022/07/13 06:03:52;;;;;;;3.72;1.75;;;;;;;36.19;33.55;100557.80;2059281;86;33012;-64
2022/07/13 06:06:58;;;;;;;3.55;1.70;;;;;;;35.78;32.71;100561.75;2059704;85;29348;-64
2022/07/13 06:10:05;;;;;;;1.65;1.25;;;;;;;34.78;32.49;100563.33;2059692;85;27950;-66
2022/07/13 06:13:11;;;;;;;3.02;1.67;;;;;;;33.76;32.30;100561.03;2059606;86;28661;-61
2022/07/13 06:16:17;;;;;;;3.52;1.87;;;;;;;33.05;32.98;100560.63;2059196;85;31226;-62
2022/07/13 06:19:26;;;;;;;1.50;1.40;;;;;;;32.98;32.96;100560.14;2059488;85;33032;-61
2022/07/13 06:22:33;;;;;;;3.00;1.70;;;;;;;32.78;32.80;100556.53;2058610;85;28014;-61
2022/07/13 06:25:38;;;;;;;1.57;1.40;;;;;;;32.62;33.14;100560.09;2058920;86;27737;-61
2022/07/13 06:28:46;;;;;;;2.42;1.25;;;;;;;33.02;33.39;100557.22;2061461;84;28651;-62
2022/07/13 06:31:54;;;;;;;1.57;1.47;;;;;;;33.60;32.96;100562.96;2098801;84;31197;-64
2022/07/13 06:35:05;;;;;;;3.37;1.50;;;;;;;34.03;32.44;100562.28;2098446;84;33130;-62
2022/07/13 06:38:10;;;;;;;1.85;1.52;;;;;;;34.60;32.31;100564.14;2098734;84;29340;-61
2022/07/13 06:41:14;;;;;;;2.87;1.70;;;;;;;35.01;31.71;100562.35;2098355;84;27996;-61
2022/07/13 06:44:19;;;;;;;3.05;1.80;;;;;;;34.99;31.75;100562.59;2098222;84;28648;-62
2022/07/13 06:47:25;;;;;;;2.60;1.85;;;;;;;35.20;31.42;100562.66;2098419;84;31732;-63
2022/07/13 06:50:36;;;;;;;3.25;1.50;;;;;;;35.46;31.14;100576.49;2098413;84;33241;-62
2022/07/13 06:53:45;;;;;;;2.15;1.70;;;;;;;35.57;30.91;100575.69;2098777;84;29387;-63
2022/07/13 06:56:51;;;;;;;1.80;1.70;;;;;;;35.68;30.27;100572.08;2098738;84;27923;-70
2022/07/13 07:00:01;;;;;;;3.22;1.70;;;;;;;35.66;30.43;100575.64;2098799;84;28741;-68
2022/07/13 07:03:04;;;;;;;1.87;1.72;;;;;;;35.91;30.29;100579.39;2098686;84;31087;-69
2022/07/13 07:06:12;;;;;;;1.62;1.30;;;;;;;35.98;29.96;100577.36;2098880;84;32978;-62
2022/07/13 07:09:18;;;;;;;1.57;1.40;;;;;;;36.13;29.63;100577.75;2098762;84;29341;-62
2022/07/13 07:12:24;;;;;;;2.33;1.60;;;;;;;36.18;29.55;100570.05;2098867;84;27858;-72
2022/07/13 07:15:30;;;;;;;2.22;1.50;;;;;;;36.10;29.24;100574.04;2098740;84;28640;-70
2022/07/13 07:18:35;;;;;;;4.00;1.67;;;;;;;35.91;29.04;100569.06;2098631;84;31308;-62
2022/07/13 07:21:40;;;;;;;2.90;1.45;;;;;;;36.07;28.95;100565.31;2074651;84;32988;-62
2022/07/13 07:24:47;;;;;;;1.40;1.30;;;;;;;36.28;28.98;100562.48;2098745;84;29302;-62
2022/07/13 07:27:54;;;;;;;3.12;1.42;;;;;;;36.54;29.04;100563.14;2097587;84;27857;-62
2022/07/13 07:31:08;;;;;;;1.67;1.47;;;;;;;36.71;28.60;100561.31;2097689;84;28790;-64
2022/07/13 07:34:17;;;;;;;3.10;1.70;;;;;;;36.99;28.50;100560.23;2098019;84;31045;-66
2022/07/13 07:37:27;;;;;;;3.05;1.57;;;;;;;37.23;28.30;100556.30;2097838;84;32992;-70
2022/07/13 07:40:34;;;;;;;2.15;1.55;;;;;;;37.35;27.70;100557.66;2097952;84;29428;-62
2022/07/13 07:43:43;;;;;;;3.72;1.47;;;;;;;37.65;28.07;100555.70;2098249;84;27714;-70
2022/07/13 07:46:51;;;;;;;2.47;1.30;;;;;;;37.99;27.64;100555.78;2097823;84;29928;-63
2022/07/13 07:49:56;;;;;;;4.42;1.42;;;;;;;38.06;27.36;100556.48;2097823;84;31070;-62
2022/07/13 07:53:03;;;;;;;1.70;1.57;;;;;;;38.26;27.18;100553.72;2097984;84;33052;-62
2022/07/13 07:56:11;;;;;;;4.62;1.72;;;;;;;38.14;26.23;100555.20;2097156;84;29157;-66
2022/07/13 07:59:24;;;;;;;1.50;1.30;;;;;;;37.63;26.50;100555.97;2096568;84;28010;-64
2022/07/13 08:02:34;;;;;;;1.72;1.32;;;;;;;37.29;26.78;100559.20;2094999;84;28719;-62
2022/07/13 08:05:51;;;;;;;2.87;1.52;;;;;;;36.75;26.63;100561.09;2093809;84;56491;-62
2022/07/13 08:08:59;;;;;;;4.12;1.27;;;;;;;36.29;27.04;100558.60;2093102;84;33171;-61
2022/07/13 08:12:08;;;;;;;1.50;1.22;;;;;;;35.86;26.60;100554.45;2094207;84;30070;-63
2022/07/13 08:15:13;;;;;;;1.80;1.20;;;;;;;35.47;26.99;100553.13;2094444;84;27849;-62
2022/07/13 08:18:21;;;;;;;2.90;1.72;;;;;;;35.09;27.37;100549.49;2094631;84;28723;-63
2022/07/13 08:21:29;;;;;;;5.22;1.40;;;;;;;34.76;27.47;100547.92;2094873;84;31094;-62
2022/07/13 08:24:32;;;;;;;2.60;1.30;;;;;;;34.34;27.75;100546.62;2094789;84;32972;-63
2022/07/13 08:27:41;;;;;;;1.42;1.22;;;;;;;34.15;28.17;100536.00;2095083;84;29346;-63
2022/07/13 08:30:47;;;;;;;5.35;1.50;;;;;;;34.03;28.53;100545.61;2094393;84;27981;-62
2022/07/13 08:40:54;;;;;;;2.50;1.40;;;;;;;33.75;29.30;100546.86;2094053;84;33026;-62
2022/07/13 08:44:00;;;;;;;3.75;1.30;;;;;;;33.67;29.41;100544.89;2093727;84;29396;-61
2022/07/13 08:47:10;;;;;;;4.53;1.70;;;;;;;33.51;29.58;100547.09;2047783;84;28068;-62
2022/07/13 08:50:16;;;;;;;1.67;1.47;;;;;;;33.57;29.94;100545.37;2096323;84;28647;-61
2022/07/13 08:53:25;;;;;;;1.37;1.20;;;;;;;33.59;29.57;100544.06;2097119;84;31075;-60
2022/07/13 08:56:33;;;;;;;2.10;1.55;;;;;;;33.59;29.30;100541.28;2096652;84;34364;-61
2022/07/13 08:59:41;;;;;;;2.30;1.42;;;;;;;33.69;29.19;100542.19;2098227;84;29342;-62
2022/07/13 09:03:08;;;;;;;1.55;1.27;;;;;;;33.73;29.56;100542.06;2098739;84;27710;-62
2022/07/13 09:06:46;;;;;;;5.15;1.20;;;;;;;33.74;28.85;100538.73;2098333;84;28713;-62
2022/07/13 09:09:57;;;;;;;2.10;1.00;;;;;;;33.77;28.95;100539.13;2098658;84;31033;-63
2022/07/13 09:13:08;;;;;;;2.65;1.52;;;;;;;33.97;28.98;100549.28;2098502;84;32990;-62
2022/07/13 09:16:27;;;;;;;1.30;1.20;;;;;;;34.04;28.40;100543.66;2097928;84;30547;-61
2022/07/13 09:19:43;;;;;;;2.10;1.17;;;;;;;33.62;28.41;100540.84;2097235;84;27916;-61
2022/07/13 09:23:05;;;;;;;2.30;1.40;;;;;;;33.36;28.41;100531.27;2098095;84;28718;-61
2022/07/13 09:26:14;;;;;;;1.40;1.00;;;;;;;33.10;28.53;100528.36;2098622;84;31272;-61
2022/07/13 09:29:28;;;;;;;1.22;0.98;;;;;;;33.02;28.68;100531.41;2098194;84;33024;-61
2022/07/13 09:32:35;;;;;;;1.42;1.20;;;;;;;32.98;28.84;100530.12;2065815;84;29342;-62
2022/07/13 09:35:52;;;;;;;3.58;1.12;;;;;;;32.93;28.56;100526.63;2064434;84;27991;-62
2022/07/13 09:39:06;;;;;;;1.52;1.15;;;;;;;32.78;28.66;100515.75;2063367;86;28538;-61
2022/07/13 09:42:14;;;;;;;1.10;1.00;;;;;;;32.78;29.12;100518.52;2045223;86;31728;-62
2022/07/13 09:48:52;;;;;;;4.85;0.93;;;;;;;32.97;29.38;100521.48;2064417;85;30782;-62
2022/07/13 09:52:02;;;;;;;4.87;1.17;;;;;;;33.31;29.72;100525.83;2064494;86;27960;-62
2022/07/13 09:55:10;;;;;;;2.55;1.10;;;;;;;33.52;29.36;100521.02;2064367;86;28702;-62
2022/07/13 09:58:20;;;;;;;1.27;1.17;;;;;;;33.59;29.08;100523.23;2045233;86;31182;-63
2022/07/13 10:01:29;;;;;;;0.80;0.80;;;;;;;33.40;28.78;100526.45;2064215;85;34216;-62
2022/07/13 10:04:40;;;;;;;1.20;1.10;;;;;;;33.27;28.96;100520.91;2063798;86;29424;-64
2022/07/13 10:07:52;;;;;;;1.60;0.90;;;;;;;33.15;28.21;100523.01;2063782;86;28011;-63
2022/07/13 10:11:00;;;;;;;2.47;1.17;;;;;;;32.90;28.82;100522.06;2064542;86;28807;-63
2022/07/13 10:14:11;;;;;;;1.57;1.10;;;;;;;32.86;29.15;100525.27;2064306;86;32313;-63
2022/07/13 10:17:19;;;;;;;2.25;1.10;;;;;;;32.94;29.20;100520.02;2064592;86;33024;-61
2022/07/13 10:20:29;;;;;;;1.10;1.05;;;;;;;33.00;29.30;100519.66;2064519;85;29344;-62
2022/07/13 10:23:44;;;;;;;1.30;0.90;;;;;;;33.08;29.25;100519.95;2063902;86;28094;-61
2022/07/13 10:26:57;;;;;;;1.42;1.12;;;;;;;33.06;29.42;100520.18;2063096;85;28029;-62
2022/07/13 10:30:20;;;;;;;1.98;1.10;;;;;;;32.97;29.11;100515.94;2038522;85;27952;-62
2022/07/13 10:33:33;;;;;;;2.40;1.35;;;;;;;32.82;29.37;100516.22;2062238;86;33764;-62
2022/07/13 10:37:00;;;;;;;3.42;1.30;;;;;;;32.61;29.37;100505.68;2062786;86;30588;-63
2022/07/13 10:40:22;;;;;;;1.40;1.07;;;;;;;32.45;29.49;100501.98;2064426;86;27999;-63
2022/07/13 10:43:30;;;;;;;1.32;1.10;;;;;;;32.13;29.02;100501.23;2064484;84;28706;-63
2022/07/13 10:46:54;;;;;;;2.15;0.93;;;;;;;31.84;28.78;100488.69;2064682;86;31005;-62
2022/07/13 10:50:04;;;;;;;1.30;1.10;;;;;;;31.52;28.98;100494.23;2046040;86;33102;-62
2022/07/13 10:53:09;;;;;;;2.20;1.07;;;;;;;31.25;29.16;100487.81;2045459;86;29340;-63
2022/07/13 10:56:28;;;;;;;0.90;0.88;;;;;;;31.10;29.66;100492.09;2064646;84;27902;-62
2022/07/13 10:59:53;;;;;;;1.62;1.07;;;;;;;30.94;29.34;100483.64;2064765;84;27874;-62
2022/07/13 11:03:04;;;;;;;1.57;0.80;;;;;;;30.81;29.45;100487.70;2064541;85;31212;-62
2022/07/13 11:06:14;;;;;;;3.00;0.90;;;;;;;30.64;29.59;100483.06;2064490;85;33677;-63
2022/07/13 11:09:24;;;;;;;0.75;0.75;;;;;;;30.59;30.15;100488.67;2064853;85;29341;-62
2022/07/13 11:12:29;;;;;;;1.20;1.00;;;;;;;30.64;30.39;100481.13;2065004;86;27904;-63
2022/07/13 11:15:56;;;;;;;2.87;0.78;;;;;;;30.78;30.07;100478.45;2065024;85;28635;-64
2022/07/13 11:19:04;;;;;;;1.02;0.93;;;;;;;30.89;30.56;100467.63;2064890;84;31001;-63
2022/07/13 11:22:14;;;;;;;1.47;1.17;;;;;;;30.98;30.34;100473.00;2045495;86;32971;-63
2022/07/13 11:25:42;;;;;;;4.25;1.20;;;;;;;31.12;29.73;100469.73;2064868;86;29488;-64
2022/07/13 11:29:24;;;;;;;0.90;0.90;;;;;;;31.21;29.73;100456.91;2064850;86;27891;-62
2022/07/13 11:32:34;;;;;;;1.32;1.25;;;;;;;31.35;29.39;100467.49;2064175;85;28715;-62
2022/07/13 11:35:48;;;;;;;2.75;1.20;;;;;;;31.38;29.42;100452.37;2064445;86;31101;-62
2022/07/13 11:38:57;;;;;;;1.07;1.07;;;;;;;31.35;29.42;100455.58;2064333;86;33389;-63
2022/07/13 11:42:11;;;;;;;1.47;1.05;;;;;;;31.40;29.35;100453.56;2064737;84;29337;-62
2022/07/13 11:45:28;;;;;;;0.88;0.88;;;;;;;31.42;29.03;100452.27;2064539;85;28052;-62
2022/07/13 11:48:34;;;;;;;1.22;1.12;;;;;;;31.39;29.15;100451.85;2064463;84;28806;-61
2022/07/13 11:51:44;;;;;;;1.32;1.05;;;;;;;31.30;29.26;100445.11;2064490;86;31011;-61
2022/07/13 11:55:05;;;;;;;2.52;1.00;;;;;;;31.26;29.54;100443.85;2063359;86;32973;-62
2022/07/13 11:58:27;;;;;;;0.80;0.80;;;;;;;31.17;29.22;100442.32;2063134;86;29337;-62
2022/07/13 12:01:35;;;;;;;;;;;;;;;31.18;29.77;100439.88;2066347;86;28000;-62
2022/07/13 12:04:49;;;;;;;1.30;1.20;;;;;;;31.22;29.61;100432.32;2064516;84;29702;-62
2022/07/13 12:08:07;;;;;;;1.17;0.90;;;;;;;31.17;29.72;100434.89;2064818;86;31222;-62
2022/07/13 12:11:16;;;;;;;1.27;1.00;;;;;;;31.15;29.59;100423.17;2064455;86;32990;-62
2022/07/13 12:14:20;;;;;;;2.00;1.15;;;;;;;31.12;30.01;100422.69;2064634;85;29343;-62
2022/07/13 12:17:25;;;;;;;2.02;1.22;;;;;;;31.13;29.87;100420.23;2064751;86;27864;-62
2022/07/13 12:20:34;;;;;;;1.00;0.90;;;;;;;31.05;29.93;100424.05;2064525;86;28651;-62
2022/07/13 12:23:43;;;;;;;2.22;1.40;;;;;;;30.96;30.13;100426.16;2064490;86;31089;-62
2022/07/13 12:26:57;;;;;;;2.00;1.20;;;;;;;30.98;30.34;100403.28;2057961;86;33166;-64
2022/07/13 12:30:12;;;;;;;1.30;1.12;;;;;;;31.03;30.22;100412.34;2064529;85;29302;-62
2022/07/13 12:33:19;;;;;;;4.28;0.93;;;;;;;31.03;30.17;100402.65;2063900;85;27912;-63
2022/07/13 12:36:28;;;;;;;1.00;1.00;;;;;;;31.06;29.96;100421.61;2064283;86;28716;-62
2022/07/13 12:39:40;;;;;;;1.35;1.10;;;;;;;31.07;29.62;100400.66;2064229;85;31073;-62
2022/07/13 12:42:51;;;;;;;2.25;1.15;;;;;;;31.09;29.41;100398.22;2064458;85;32993;-62
2022/07/13 12:46:02;;;;;;;1.87;1.52;;;;;;;31.11;29.51;100390.02;2063776;86;29348;-62
2022/07/13 12:49:11;;;;;;;1.92;1.05;;;;;;;31.18;29.72;100390.93;2062846;86;28014;-62
2022/07/13 12:52:19;;;;;;;1.30;1.00;;;;;;;31.21;29.38;100394.64;2063321;86;28767;-62
2022/07/13 12:55:27;;;;;;;1.07;1.07;;;;;;;31.24;29.02;100385.08;2062725;86;31098;-61
2022/07/13 12:58:52;;;;;;;2.37;0.90;;;;;;;31.34;29.31;100386.05;2062292;86;29824;-62
2022/07/13 13:01:59;;;;;;;1.30;1.20;;;;;;;31.49;28.70;100382.54;2062437;85;29725;-61
2022/07/13 13:05:11;;;;;;;2.33;1.15;;;;;;;31.58;28.63;100376.77;2063172;86;27977;-62
2022/07/13 13:08:16;;;;;;;1.00;0.90;;;;;;;31.61;28.83;100371.65;2062665;86;28692;-62
2022/07/13 13:11:24;;;;;;;1.37;0.80;;;;;;;31.67;28.69;100372.19;2062876;85;31037;-63
2022/07/13 13:14:34;;;;;;;1.20;1.05;;;;;;;31.72;28.55;100366.03;2062708;86;32987;-62
2022/07/13 13:17:43;;;;;;;1.07;0.98;;;;;;;31.79;28.53;100364.12;2062755;86;29512;-63
2022/07/13 13:20:54;;;;;;;3.20;0.98;;;;;;;31.82;28.86;100358.67;2064310;85;27960;-62
2022/07/13 13:23:58;;;;;;;1.10;1.00;;;;;;;31.89;28.68;100353.11;2063684;85;28834;-63
2022/07/13 13:27:05;;;;;;;;;;;;;;;31.91;28.72;100352.36;2066687;85;31039;-62
2022/07/13 13:33:41;;;;;;;0.93;0.82;;;;;;;31.84;28.72;100366.23;2061696;85;30566;-64
2022/07/13 13:36:53;;;;;;;2.92;1.25;;;;;;;31.78;28.72;100361.03;1997239;87;28045;-63
2022/07/13 13:40:00;;;;;;;1.55;1.02;;;;;;;31.74;28.58;100351.44;2042380;86;28735;-61
2022/07/13 13:43:06;;;;;;;2.47;1.10;;;;;;;31.76;28.50;100344.31;2043108;86;31072;-61
2022/07/13 13:46:14;;;;;;;3.35;2.60;;;;;;;31.75;28.82;100343.45;2042955;86;32972;-62
2022/07/13 13:49:20;;;;;;;4.42;3.80;;;;;;;31.78;28.68;100346.30;2043061;86;29335;-62
2022/07/13 13:52:27;;;;;;;3.77;3.37;;;;;;;31.77;28.67;100345.47;2043139;86;27870;-62
2022/07/13 13:55:34;;;;;;;11.93;9.50;;;;;;;31.73;29.07;100346.13;2042941;86;28659;-62
2022/07/13 13:58:39;;;;;;;15.78;14.07;;;;;;;31.66;28.71;100340.56;2042850;86;31033;-62
2022/07/13 14:01:43;;;;;;;5.53;5.03;;;;;;;31.57;28.37;100343.22;2061115;86;32974;-66
2022/07/13 14:04:47;;;;;;;13.85;12.50;;;;;;;31.47;29.07;100332.57;2061307;86;29349;-66
2022/07/13 14:07:56;;;;;;;12.07;10.55;;;;;;;31.41;28.67;100329.30;2061399;86;27979;-63
2022/07/13 14:11:00;;;;;;;4.70;2.83;;;;;;;31.30;28.28;100323.31;2061754;86;28662;-62
2022/07/13 14:14:06;;;;;;;9.63;8.63;;;;;;;31.24;29.29;100314.50;2061159;86;31041;-65
2022/07/13 14:17:15;;;;;;;8.45;6.53;;;;;;;31.18;28.49;100314.82;2061207;86;33680;-66
2022/07/13 14:20:23;;;;;;;4.97;4.47;;;;;;;31.06;28.53;100317.33;2061115;86;29345;-63
2022/07/13 14:23:28;;;;;;;5.67;4.70;;;;;;;30.94;28.64;100316.26;2061017;86;27944;-63
2022/07/13 14:26:34;;;;;;;3.83;2.60;;;;;;;30.91;28.78;100306.98;2061452;86;28708;-62
2022/07/13 14:29:40;;;;;;;2.95;2.50;;;;;;;30.83;28.77;100297.49;2060979;86;31017;-62
2022/07/13 14:32:45;;;;;;;6.37;3.72;;;;;;;30.76;28.64;100291.95;2060089;85;32994;-63
2022/07/13 14:35:56;;;;;;;3.20;2.90;;;;;;;30.74;29.15;100285.77;2058499;86;29373;-62
2022/07/13 14:39:00;;;;;;;4.75;4.35;;;;;;;30.73;29.21;100282.69;2025109;87;27831;-62
2022/07/13 14:42:04;;;;;;;4.42;4.00;;;;;;;30.71;29.09;100277.37;2058973;86;28649;-63
2022/07/13 14:45:10;;;;;;;3.80;3.50;;;;;;;30.71;29.29;100270.98;2058724;86;31044;-63
2022/07/13 14:48:18;;;;;;;4.55;3.83;;;;;;;30.66;29.04;100279.91;2058080;86;33065;-63
2022/07/13 14:51:26;;;;;;;3.50;2.70;;;;;;;30.63;29.01;100278.94;2058065;86;29462;-63
2022/07/13 14:54:33;;;;;;;2.42;2.22;;;;;;;30.57;29.13;100269.58;2024083;87;27937;-63
2022/07/13 14:57:38;;;;;;;2.35;2.15;;;;;;;30.50;29.02;100273.36;2056352;86;28607;-62